Tucson, AZ (85749)

11:20 PM MST on July 26, 2016 (GMT -0700)
| | Change Station
Active Advisory: Areal Flood Advisory Active Notice: Public Information Statement

Elev -9999 ft 0.00 °N, 0.00 °E | Updated

Partly Cloudy
Partly Cloudy
84 °F
Feels Like 84 °F
N
6
Wind Variable Wind from ESE
Gusts mph

Today
High -- | Low -- °F
--% Chance of Precip.
Yesterday
High -- | Low -- °F
Precip. -- in
Pressure 29.83 in
Visibility 10.0 miles
Clouds Scattered Clouds 7000 ft
Scattered Clouds 8000 ft
Heat Index 84 °F
Dew Point 61 °F
Humidity 45%
Rainfall --
Snow Depth Not available.
5:34 AM 7:24 PM
Waning Gibbous, 46% visible
METAR KDMA 270558Z AUTO 16007KT 10SM -RA VCTS SCT070 SCT080 26/20 A2997 RMK AO2 LTG DSNT W TSB0459E14 PRESFR SLP100 P0004 60037 T02570203 10394 20238 50014 $
Pressure 29.83 in
Visibility 10.0 miles
Clouds Scattered Clouds 7000 ft
Scattered Clouds 8000 ft
Heat Index 84 °F
Dew Point 61 °F
Humidity 45%
Rainfall --
Snow Depth Not available.
5:34 AM 7:24 PM
Waning Gibbous, 46% visible
METAR KDMA 270558Z AUTO 16007KT 10SM -RA VCTS SCT070 SCT080 26/20 A2997 RMK AO2 LTG DSNT W TSB0459E14 PRESFR SLP100 P0004 60037 T02570203 10394 20238 50014 $

10-Day Weather Forecast

Almanac

Astronomy

Jul. 26, 2016 Rise Set
Actual Time
Civil Twilight
Nautical Twilight
Astronomical Twilight
Moon
Length of Visible Light
Length of Day
Tomorrow will be .
, % of the Moon is Illuminated

Today's Extremes

State Highs State Lows

Community

WunderPhotos

Upload Photos

1,927,818 photos uploaded!

WunderBlog® & News

Nearby

Air Quality

  Air Quality AQ Index Pollutant
Not available.

Snow Depth

Station Depth Elevation

Earthquake Activity

City Distance Mag. Time & Date
Minimum magnitude displayed is 2.5.

Coastal Water Temperatures

Place Temperature

Stations

Nearby Weather Stations

Station Location Temp. Windchill Dew Point Humidity Wind Precip. Elev Updated Type
                   

Watches & Warnings

Areal Flood Advisory
Issued: 9:28 PM MDT Jul. 26, 2016 – National Weather Service

The National Weather Service in Tucson has issued a

* Urban and Small Stream Flood Advisory for poor drainage areas
for...
northeastern Pima County in southeastern Arizona...

* until 1130 PM MST

* at 926 PM MST... an area of thunderstorms producing heavy rain were
located over and around the Tucson area. Storms were moving slowly
westward.

* Some locations that will experience some street and wash flooding
include... Tucson... Oro Valley... Marana... Green Valley...
Sahuarita... flowing Wells... Tanque Verde... Casas Adobes...
Drexel Heights... Tucson Estates... Sahuarita...
South Tucson and Catalina Foothills.

Precautionary/preparedness actions...

Be especially cautious at night when it is harder to recognize the
dangers of flooding.


Lat... Lon 3250 11047 3184 11046 3181 11129 3248 11124


Meyer